PDT,Max TemperatureF,Mean TemperatureF,Min TemperatureF,Max Dew PointF,MeanDew PointF,Min DewpointF,Max Humidity, Mean Humidity, Min Humidity, Max Sea Level PressureIn, Mean Sea Level PressureIn, Min Sea Level PressureIn, Max VisibilityMiles, Mean VisibilityMiles, Min VisibilityMiles, Max Wind SpeedMPH, Mean Wind SpeedMPH, Max Gust SpeedMPH,PrecipitationIn, CloudCover, Events, WindDirDegrees
2013-3-1,53,50,46,50,48,46,100,93,82,30.25,30.22,30.20,10,8,2,14,9,21,0.05,6,Rain,193
2013-3-2,51,44,37,48,44,36,100,91,71,30.21,30.10,30.00,10,9,2,13,6,20,0.01,5,Rain,205
2013-3-3,46,39,32,37,34,32,100,82,57,30.30,30.24,30.15,10,10,10,12,4,,0.00,2,,298
2013-3-4,44,38,32,37,34,28,100,85,53,30.30,30.16,29.96,10,10,7,10,2,17,0.00,0,,18
2013-3-5,46,44,41,41,32,27,100,65,49,29.95,29.83,29.76,10,9,4,12,6,20,0.00,4,Rain,59
2013-3-6,42,42,41,41,39,37,100,92,87,29.86,29.70,29.62,10,8,4,18,7,23,0.00,5,Rain,343
2013-3-7,46,40,35,41,39,36,100,94,81,30.10,30.02,29.86,10,8,3,9,4,,0.00,5,Rain,186
2013-3-8,46,40,33,41,38,34,100,93,76,30.23,30.14,30.08,10,8,2,7,1,,0.00,4,,352
2013-3-9,50,41,32,41,37,32,100,86,66,30.47,30.39,30.23,10,9,5,8,3,,0.00,1,Rain,178
2013-3-10,46,44,41,41,40,39,93,87,76,30.47,30.43,30.41,10,10,7,9,4,,0.00,5,Rain,184
2013-3-11,46,42,39,45,40,37,100,85,71,30.42,30.33,30.09,10,9,3,7,4,,0.00,4,Rain,129
2013-3-12,50,48,46,50,48,45,100,96,93,30.08,30.01,29.94,10,7,1,17,10,23,0.10,7,Rain,190
2013-3-13,51,50,48,48,48,48,100,94,88,30.14,30.08,30.02,10,8,3,15,9,21,0.07,6,Rain,181
2013-3-14,53,50,48,48,47,45,100,89,72,30.10,30.01,29.97,10,9,2,13,6,18,0.01,3,Rain,184
2013-3-15,55,50,46,48,47,46,100,89,72,30.18,30.13,30.09,10,10,2,13,8,17,0.04,3,Rain,193
2013-3-16,50,44,37,46,39,30,100,81,50,30.09,29.94,29.82,10,10,2,12,6,21,0.01,3,Rain,209
2013-3-17,48,42,35,34,31,25,87,68,43,30.13,30.08,29.91,10,10,10,13,5,17,0.00,1,,226
2013-3-18,48,42,35,37,35,28,100,78,46,30.23,30.14,30.03,10,9,3,15,8,22,0.18,2,Rain,228
2013-3-19,51,42,33,39,33,27,93,72,40,30.22,29.95,29.52,10,10,5,12,3,28,0.00,1,Rain,91
2013-3-20,53,46,39,48,39,28,94,74,57,29.93,29.52,29.27,10,10,4,23,11,36,0.02,3,Rain,199
2013-3-21,46,42,37,36,32,30,87,73,53,30.18,30.09,29.94,10,10,7,13,7,17,0.00,2,Rain,214
2013-3-22,42,37,32,32,31,27,100,73,61,30.36,30.28,30.18,10,10,8,9,3,,0.00,3,Rain,313
2013-3-23,46,39,32,32,31,27,100,75,49,30.38,30.35,30.30,10,10,8,7,1,,0.00,1,,146
2013-3-24,48,40,33,37,33,27,100,79,46,30.30,30.23,30.13,10,10,8,7,1,,0.00,3,,19
2013-3-25,48,42,35,41,37,32,100,81,57,30.13,30.04,29.96,10,10,8,7,1,,0.00,0,,345
2013-3-26,50,44,37,43,38,34,100,82,62,30.02,29.99,29.97,10,10,7,6,1,,0.00,1,,352
2013-3-27,53,46,39,45,41,37,100,85,58,29.99,29.96,29.95,10,9,0,7,1,,0.00,3,Fog-Rain,347
2013-3-28,53,45,37,45,43,37,100,88,71,30.13,30.06,29.99,10,9,7,6,1,,0.00,1,,6
2013-3-29,53,46,39,46,44,39,100,93,77,30.27,30.22,30.13,10,8,0,7,1,,0.00,2,Fog,351
2013-3-30,51,44,37,48,43,37,100,91,76,30.27,30.21,30.10,10,9,0,8,1,,0.00,0,Fog,347
2013-3-31,57,50,44,46,43,39,100,82,51,30.09,30.01,29.91,10,10,7,8,2,,0.00,0,,348